Time;durP1;ratioP1;P1;durP2;ratioP2;P2;SDS_P1;SDS_P2;PMS_P1;PMS_P2;Temp;Humidity;BMP_temperature;BMP_pressure;BME280_temperature;BME280_humidity;BME280_pressure;Samples;Min_cycle;Max_cycle;Signal;HPM_P1;HPM_P2
2021/12/18 00:01:05;;;;;;;6.43;4.73;;;;;;;2.14;92.79;97372.09;5046433;28;20240;-73
2021/12/18 00:03:33;;;;;;;8.03;4.73;;;;;;;2.00;93.09;97350.13;5048564;28;20194;-68
2021/12/18 00:06:01;;;;;;;8.27;5.40;;;;;;;1.99;93.18;97369.69;5050352;28;20277;-73
2021/12/18 00:08:28;;;;;;;8.50;6.00;;;;;;;2.00;93.23;97378.19;5050293;28;20280;-70
2021/12/18 00:10:55;;;;;;;8.93;5.00;;;;;;;1.95;93.45;97385.88;5065245;28;20645;-70
2021/12/18 00:13:23;;;;;;;8.00;5.53;;;;;;;1.97;94.12;97370.56;5050460;28;20263;-67
2021/12/18 00:15:51;;;;;;;8.93;5.43;;;;;;;2.06;93.98;97373.03;5050162;28;20675;-64
2021/12/18 00:18:19;;;;;;;7.63;5.27;;;;;;;2.09;93.61;97375.56;5050048;28;20217;-73
2021/12/18 00:20:47;;;;;;;9.77;5.77;;;;;;;2.02;93.83;97382.41;5049861;28;20277;-73
2021/12/18 00:23:15;;;;;;;11.07;5.73;;;;;;;2.00;93.21;97381.56;5049917;28;20194;-69
2021/12/18 00:25:43;;;;;;;11.77;6.53;;;;;;;2.04;93.69;97382.44;5050147;28;20216;-71
2021/12/18 00:28:10;;;;;;;12.37;6.63;;;;;;;2.01;94.01;97390.94;5049767;28;20201;-70
2021/12/18 00:30:38;;;;;;;10.27;6.63;;;;;;;2.02;93.95;97381.59;5050242;28;20217;-72
2021/12/18 00:33:06;;;;;;;12.10;6.53;;;;;;;1.90;94.51;97389.31;5050012;28;20194;-74
2021/12/18 00:35:33;;;;;;;12.23;7.30;;;;;;;1.84;94.22;97391.91;5076709;28;20200;-71
2021/12/18 00:38:02;;;;;;;10.07;6.30;;;;;;;1.91;93.80;97391.88;5069614;28;20192;-67
2021/12/18 00:40:43;;;;;;;12.17;6.33;;;;;;;1.99;94.56;97395.22;5069526;28;20227;-72
2021/12/18 00:43:24;;;;;;;11.03;6.33;;;;;;;2.06;93.96;97389.19;5049861;28;20612;-71
2021/12/18 00:45:51;;;;;;;9.23;6.23;;;;;;;2.03;93.63;97385.81;5053922;28;20292;-66
2021/12/18 00:48:19;;;;;;;9.67;5.90;;;;;;;2.01;93.24;97392.66;5069507;28;20193;-69
2021/12/18 00:50:46;;;;;;;9.47;5.80;;;;;;;2.05;94.24;97389.22;5069548;28;20851;-71
2021/12/18 00:53:13;;;;;;;11.07;6.17;;;;;;;2.16;93.03;97393.41;5069457;28;20195;-69
2021/12/18 00:55:41;;;;;;;9.60;5.87;;;;;;;2.19;93.07;97390.81;5069321;28;20255;-70
2021/12/18 00:58:08;;;;;;;8.27;5.23;;;;;;;2.21;93.31;97390.78;5069288;28;20235;-69
2021/12/18 01:00:38;;;;;;;8.47;4.70;;;;;;;2.21;93.17;97386.53;5069592;28;20289;-69
2021/12/18 01:03:14;;;;;;;9.17;4.53;;;;;;;2.25;93.20;97392.47;5069153;28;20200;-74
2021/12/18 01:05:42;;;;;;;11.60;6.80;;;;;;;2.35;93.51;97376.19;5069183;28;20195;-66
2021/12/18 01:08:09;;;;;;;12.23;7.70;;;;;;;2.53;92.78;97390.53;5067773;28;20193;-71
2021/12/18 01:13:07;;;;;;;6.83;4.30;;;;;;;2.51;91.24;97390.56;5068941;28;20243;-72
2021/12/18 01:15:36;;;;;;;6.57;4.30;;;;;;;2.40;91.55;97390.66;5068777;28;20651;-69
2021/12/18 01:23:35;;;;;;;4.80;3.20;;;;;;;2.28;91.73;97361.78;5068679;28;20220;-64
2021/12/18 01:26:05;;;;;;;15.57;6.83;;;;;;;2.40;91.73;97369.34;5069028;28;20251;-67
2021/12/18 01:28:33;;;;;;;20.43;8.97;;;;;;;2.49;92.14;97370.09;5068543;28;20246;-66
2021/12/18 01:31:02;;;;;;;7.03;3.97;;;;;;;2.45;91.42;97368.44;5068877;28;20739;-70
2021/12/18 01:33:29;;;;;;;6.10;3.00;;;;;;;2.27;91.17;97365.19;5068539;28;20268;-70
2021/12/18 01:36:00;;;;;;;5.37;3.43;;;;;;;2.26;92.29;97364.38;5053923;28;20296;-72
2021/12/18 01:38:31;;;;;;;4.93;3.57;;;;;;;2.24;91.76;97362.69;5048561;28;20221;-72
2021/12/18 01:41:00;;;;;;;5.40;3.17;;;;;;;2.17;91.57;97367.00;5048479;28;20610;-69
2021/12/18 01:51:48;;;;;;;3.67;2.93;;;;;;;2.01;93.10;97367.97;5048289;28;20221;-72
2021/12/18 01:54:14;;;;;;;3.83;2.97;;;;;;;2.03;92.29;97373.06;5046598;28;20237;-70
2021/12/18 01:56:41;;;;;;;6.23;3.30;;;;;;;2.02;92.83;97373.94;5048701;28;20267;-68
2021/12/18 01:59:09;;;;;;;5.67;3.07;;;;;;;2.08;93.17;97361.13;5048351;28;20739;-71
2021/12/18 02:01:36;;;;;;;5.17;3.53;;;;;;;2.22;93.03;97361.84;5048220;28;20209;-67
2021/12/18 02:04:03;;;;;;;6.37;3.63;;;;;;;2.36;91.68;97360.03;5048068;28;20189;-68
2021/12/18 02:06:31;;;;;;;7.63;4.67;;;;;;;2.47;91.21;97363.34;5047780;28;20194;-68
2021/12/18 02:08:58;;;;;;;6.03;3.53;;;;;;;2.56;90.61;97370.06;5047997;28;20198;-68
2021/12/18 02:11:30;;;;;;;6.50;3.77;;;;;;;2.48;91.01;97365.03;5047723;28;20200;-69
2021/12/18 02:22:21;;;;;;;7.30;4.13;;;;;;;2.47;91.09;97363.34;5025633;28;20289;-67
2021/12/18 02:24:48;;;;;;;6.77;3.90;;;;;;;2.36;90.46;97357.47;5024506;28;20306;-70
2021/12/18 02:27:15;;;;;;;6.30;4.63;;;;;;;2.42;91.48;97362.53;5036322;28;20991;-68
2021/12/18 02:29:43;;;;;;;5.93;3.93;;;;;;;2.45;90.77;97365.06;5047323;28;20798;-67
2021/12/18 02:32:11;;;;;;;6.90;4.20;;;;;;;2.49;90.94;97371.84;5047405;28;20225;-65
2021/12/18 02:34:40;;;;;;;8.80;5.07;;;;;;;2.59;91.43;97370.03;5047828;28;20756;-67
2021/12/18 02:37:10;;;;;;;9.97;5.03;;;;;;;2.71;90.20;97363.09;5047164;28;20230;-69
2021/12/18 02:39:55;;;;;;;6.23;3.93;;;;;;;2.72;90.64;97363.97;5047772;28;20217;-69
2021/12/18 02:42:23;;;;;;;6.50;3.90;;;;;;;2.63;90.05;97366.59;5047019;28;20244;-68
2021/12/18 02:44:51;;;;;;;4.43;3.50;;;;;;;2.53;90.36;97372.66;5047282;28;20292;-68
2021/12/18 02:47:19;;;;;;;6.80;3.90;;;;;;;2.65;90.47;97365.72;5047128;28;20202;-67
2021/12/18 02:49:49;;;;;;;6.47;4.80;;;;;;;2.65;90.39;97368.28;5047327;28;20581;-66
2021/12/18 02:52:26;;;;;;;6.83;4.63;;;;;;;2.73;89.51;97360.53;5047301;28;20210;-68
2021/12/18 02:54:53;;;;;;;7.50;5.80;;;;;;;2.76;89.76;97369.00;5047024;28;20208;-66
2021/12/18 02:57:20;;;;;;;9.27;5.50;;;;;;;2.78;89.63;97369.81;5047375;28;20212;-67
2021/12/18 02:59:50;;;;;;;8.50;5.43;;;;;;;2.79;90.22;97370.69;5047043;28;20229;-68
2021/12/18 03:02:19;;;;;;;7.37;5.67;;;;;;;2.66;90.50;97375.06;5047216;28;20206;-68
2021/12/18 03:04:51;;;;;;;18.67;8.57;;;;;;;2.57;90.77;97377.72;5047045;28;20911;-68
2021/12/18 03:07:22;;;;;;;16.60;9.47;;;;;;;2.54;90.97;97393.06;5046843;28;20192;-68
2021/12/18 03:23:41;;;;;;;12.50;6.30;;;;;;;2.64;90.74;97404.09;5065324;28;20201;-70
2021/12/18 03:26:08;;;;;;;14.00;6.60;;;;;;;2.58;90.85;97402.41;5066634;28;20276;-70
2021/12/18 03:28:35;;;;;;;8.03;5.33;;;;;;;2.62;90.47;97398.97;5066646;28;20837;-70
2021/12/18 03:31:02;;;;;;;9.10;4.93;;;;;;;2.60;89.80;97397.31;5066704;28;20244;-71
2021/12/18 03:33:29;;;;;;;5.63;4.57;;;;;;;2.63;90.08;97392.16;5066354;28;20197;-70
2021/12/18 03:35:57;;;;;;;10.30;5.70;;;;;;;2.68;90.06;97398.09;5066853;28;20218;-68
2021/12/18 03:38:24;;;;;;;11.13;5.87;;;;;;;2.79;89.81;97402.22;5066766;28;20262;-70
2021/12/18 03:40:51;;;;;;;9.40;5.63;;;;;;;2.86;89.91;97391.09;5066484;28;20243;-71
2021/12/18 03:43:18;;;;;;;7.77;4.93;;;;;;;2.88;89.80;97391.06;5066249;28;20252;-69
2021/12/18 03:45:46;;;;;;;8.40;5.30;;;;;;;3.01;89.51;97396.03;5066263;28;20676;-69
2021/12/18 03:48:13;;;;;;;9.57;5.80;;;;;;;2.91;89.39;97399.53;5066783;28;20200;-73
2021/12/18 03:50:40;;;;;;;9.20;5.20;;;;;;;2.83;88.94;97398.78;5066194;28;20214;-72
2021/12/18 03:53:07;;;;;;;16.03;9.37;;;;;;;2.83;89.54;97414.13;5066817;28;20212;-69
2021/12/18 03:55:34;;;;;;;16.37;8.20;;;;;;;2.80;89.75;97411.59;5066216;28;20244;-74
2021/12/18 03:58:01;;;;;;;8.80;6.37;;;;;;;2.86;89.27;97409.00;5066195;28;20688;-72
2021/12/18 04:00:28;;;;;;;7.93;5.57;;;;;;;2.85;89.24;97416.66;5066153;28;20216;-70
2021/12/18 04:02:55;;;;;;;8.57;5.43;;;;;;;2.82;89.73;97424.38;5064871;28;20576;-69
2021/12/18 04:05:22;;;;;;;7.43;5.17;;;;;;;2.66;89.35;97390.41;5066593;28;20680;-73
2021/12/18 04:07:50;;;;;;;8.03;4.70;;;;;;;2.67;89.50;97427.91;5066132;28;20541;-73
2021/12/18 04:10:18;;;;;;;6.03;4.23;;;;;;;2.63;90.01;97413.47;5066777;28;20308;-73
2021/12/18 04:12:46;;;;;;;7.90;4.50;;;;;;;2.72;89.77;97427.88;5066085;28;20735;-73
2021/12/18 04:15:13;;;;;;;5.87;4.30;;;;;;;2.67;90.06;97425.34;5066050;28;20228;-69
2021/12/18 04:17:40;;;;;;;7.47;4.33;;;;;;;2.66;90.24;97428.75;5064611;28;20580;-73
2021/12/18 04:20:08;;;;;;;5.63;4.70;;;;;;;2.74;89.40;97429.53;5065940;28;20185;-72
2021/12/18 04:22:35;;;;;;;4.30;3.90;;;;;;;2.75;89.63;97427.81;5066018;28;20205;-73
2021/12/18 04:25:03;;;;;;;6.30;4.87;;;;;;;2.67;90.06;97425.34;5065660;28;20197;-72
2021/12/18 04:27:30;;;;;;;9.50;6.60;;;;;;;2.58;89.87;97435.63;5048155;28;20237;-71
2021/12/18 04:29:57;;;;;;;12.73;7.87;;;;;;;2.43;90.35;97428.94;5055127;28;20256;-70
2021/12/18 04:32:25;;;;;;;15.70;8.23;;;;;;;2.42;90.27;97441.75;5064931;28;20254;-71
2021/12/18 04:34:52;;;;;;;10.23;6.93;;;;;;;2.28;90.79;97428.22;5066180;28;20195;-72
2021/12/18 04:37:20;;;;;;;12.93;6.43;;;;;;;2.36;91.16;97437.53;5065932;28;20226;-69
2021/12/18 04:39:47;;;;;;;11.40;6.63;;;;;;;2.34;92.31;97438.41;5066226;28;20288;-72
2021/12/18 04:42:14;;;;;;;13.60;7.50;;;;;;;2.30;91.23;97434.16;5055121;28;20692;-68
2021/12/18 04:44:41;;;;;;;25.33;10.27;;;;;;;2.24;91.39;97439.31;5066241;28;20647;-72
2021/12/18 04:47:08;;;;;;;22.30;10.77;;;;;;;2.27;91.53;97439.28;5065787;28;20220;-73
2021/12/18 04:49:35;;;;;;;44.00;13.80;;;;;;;1.86;91.94;97444.66;5069632;28;20197;-73
2021/12/18 04:52:03;;;;;;;29.97;14.33;;;;;;;1.79;94.41;97449.81;5069415;28;20604;-70
2021/12/18 04:54:30;;;;;;;24.83;13.23;;;;;;;1.79;94.64;97447.25;5067941;28;20311;-69
2021/12/18 04:56:57;;;;;;;33.10;10.37;;;;;;;1.85;93.68;97452.34;5069361;28;20191;-68
2021/12/18 04:59:24;;;;;;;25.20;10.83;;;;;;;1.82;94.87;97457.44;5069380;28;20190;-71
2021/12/18 05:01:52;;;;;;;25.20;11.63;;;;;;;1.98;94.13;97465.00;5069735;28;20556;-73
2021/12/18 05:04:20;;;;;;;31.57;12.13;;;;;;;2.07;92.69;97464.97;5069095;28;20208;-70
2021/12/18 05:06:50;;;;;;;45.47;15.27;;;;;;;1.85;92.96;97467.66;5068345;28;20197;-71
2021/12/18 05:09:18;;;;;;;37.83;15.93;;;;;;;1.91;93.92;97463.38;5049014;28;20247;-70
2021/12/18 05:11:45;;;;;;;32.90;15.67;;;;;;;2.06;94.04;97465.81;5048971;28;20720;-70
2021/12/18 05:14:12;;;;;;;36.10;15.70;;;;;;;2.02;92.98;97468.41;5049103;28;20643;-71
2021/12/18 05:16:39;;;;;;;33.93;16.63;;;;;;;1.99;92.81;97460.75;5049201;28;20202;-73
2021/12/18 05:19:06;;;;;;;27.80;12.63;;;;;;;1.99;92.63;97461.63;5049163;28;20285;-73
2021/12/18 05:22:13;;;;;;;30.93;15.77;;;;;;;2.19;92.83;97471.69;5048529;28;20202;-70
2021/12/18 05:24:54;;;;;;;20.53;9.20;;;;;;;2.04;91.83;97467.53;5048362;28;20213;-70
2021/12/18 05:27:21;;;;;;;32.87;15.47;;;;;;;1.75;92.64;97483.88;5049131;28;20273;-70
2021/12/18 05:29:48;;;;;;;29.47;14.23;;;;;;;1.87;92.73;97481.25;5048484;28;20280;-71
2021/12/18 05:32:15;;;;;;;22.60;11.73;;;;;;;2.01;92.09;97475.22;5049027;28;20407;-71
2021/12/18 05:34:42;;;;;;;21.23;12.97;;;;;;;2.12;91.50;97485.38;5047512;28;20277;-72
2021/12/18 05:39:52;;;;;;;24.20;14.07;;;;;;;2.41;90.62;97494.56;5048829;28;20193;-73
2021/12/18 05:42:19;;;;;;;22.80;13.97;;;;;;;2.39;90.39;97498.00;5048563;28;20217;-71
2021/12/18 05:44:46;;;;;;;42.50;24.50;;;;;;;2.47;89.25;97503.91;5049201;28;20221;-71
2021/12/18 05:47:13;;;;;;;24.20;14.43;;;;;;;2.24;89.78;97498.09;5050951;28;20213;-68
2021/12/18 05:49:40;;;;;;;25.90;14.67;;;;;;;2.19;90.60;97499.81;5051564;28;20213;-71
2021/12/18 05:52:08;;;;;;;26.70;16.07;;;;;;;2.32;90.93;97517.63;5050809;28;20215;-71
2021/12/18 05:54:36;;;;;;;27.90;16.00;;;;;;;2.39;90.03;97513.34;5050570;28;20197;-72
2021/12/18 05:57:09;;;;;;;22.37;12.27;;;;;;;2.43;89.79;97520.13;5050493;28;20695;-68
2021/12/18 05:59:37;;;;;;;14.80;8.87;;;;;;;2.46;89.25;97518.38;5048427;28;20205;-70
2021/12/18 06:02:04;;;;;;;17.83;10.47;;;;;;;2.33;90.01;97513.34;5048729;28;20256;-65
2021/12/18 06:04:31;;;;;;;16.17;10.13;;;;;;;2.46;89.57;97525.19;5048316;28;20190;-70
2021/12/18 06:07:04;;;;;;;21.70;10.80;;;;;;;2.47;90.03;97529.47;5048723;28;20603;-71
2021/12/18 06:09:35;;;;;;;18.47;11.00;;;;;;;2.47;89.93;97529.47;5047903;28;20251;-71
2021/12/18 06:12:03;;;;;;;17.83;10.40;;;;;;;2.46;89.03;97512.41;5047631;28;20222;-67
2021/12/18 06:14:30;;;;;;;13.27;9.13;;;;;;;2.58;88.57;97529.41;5047834;28;20197;-70
2021/12/18 06:16:57;;;;;;;21.37;11.60;;;;;;;2.57;88.82;97538.75;5046149;28;20237;-73
2021/12/18 06:19:24;;;;;;;22.77;10.80;;;;;;;2.63;88.31;97533.59;5048221;28;20687;-68
2021/12/18 06:21:51;;;;;;;19.60;10.30;;;;;;;2.71;87.69;97542.06;5048450;28;20198;-69
2021/12/18 06:24:18;;;;;;;17.43;9.90;;;;;;;2.68;86.85;97541.25;5047868;28;20225;-69
2021/12/18 06:26:45;;;;;;;22.10;11.80;;;;;;;2.71;87.16;97536.97;5046177;28;20300;-68
2021/12/18 06:29:12;;;;;;;20.17;11.47;;;;;;;2.67;86.54;97545.50;5046057;28;20190;-71
2021/12/18 06:31:40;;;;;;;22.83;13.40;;;;;;;2.75;86.99;97542.88;5047600;28;20813;-71
2021/12/18 06:34:07;;;;;;;22.77;12.33;;;;;;;2.75;85.94;97543.75;5047174;28;20227;-71
2021/12/18 06:36:34;;;;;;;20.07;10.60;;;;;;;2.71;86.43;97557.41;5047671;28;20226;-71
2021/12/18 06:39:01;;;;;;;23.23;11.80;;;;;;;2.84;86.11;97568.41;5046721;28;20669;-71
2021/12/18 06:41:28;;;;;;;26.87;13.83;;;;;;;2.98;85.85;97570.00;5045481;28;20427;-67
2021/12/18 06:43:56;;;;;;;23.33;14.30;;;;;;;2.85;85.72;97567.53;5047011;28;20651;-65
2021/12/18 06:46:23;;;;;;;22.47;14.07;;;;;;;2.81;85.11;97568.41;5047192;28;20193;-72
2021/12/18 06:48:50;;;;;;;13.73;8.70;;;;;;;2.81;81.97;97579.50;5046968;28;20198;-70
2021/12/18 06:51:22;;;;;;;10.03;7.23;;;;;;;2.61;81.28;97581.34;5029708;28;20245;-71
2021/12/18 06:53:49;;;;;;;9.43;5.83;;;;;;;2.48;81.08;97592.47;5047197;28;20297;-72
2021/12/18 06:56:16;;;;;;;9.00;6.03;;;;;;;2.47;81.15;97578.84;5046886;28;20672;-69
2021/12/18 06:58:43;;;;;;;8.07;6.20;;;;;;;2.41;81.89;97583.16;5046956;28;20205;-68
2021/12/18 07:01:10;;;;;;;9.13;5.30;;;;;;;2.42;80.52;97587.41;5045194;28;20198;-68
2021/12/18 07:03:37;;;;;;;10.73;6.57;;;;;;;2.45;80.94;97574.63;5046903;28;20239;-72
2021/12/18 07:06:05;;;;;;;12.17;7.30;;;;;;;2.43;81.71;97584.00;5046770;28;20186;-71
2021/12/18 07:08:32;;;;;;;9.43;5.67;;;;;;;2.43;81.05;97589.13;5062103;28;20251;-67
2021/12/18 07:10:59;;;;;;;7.97;5.73;;;;;;;2.40;81.40;97596.78;5046479;28;20214;-68
2021/12/18 07:13:27;;;;;;;11.97;7.30;;;;;;;2.36;80.89;97592.56;5046429;28;20919;-70
2021/12/18 07:15:54;;;;;;;11.47;7.10;;;;;;;2.27;80.79;97584.91;5045289;28;20263;-69
2021/12/18 07:18:21;;;;;;;9.40;5.47;;;;;;;2.27;81.03;97606.22;5046487;28;20221;-70
2021/12/18 07:20:50;;;;;;;11.87;7.20;;;;;;;2.32;81.22;97607.06;5044695;28;20193;-70
2021/12/18 07:23:17;;;;;;;9.57;6.20;;;;;;;2.32;80.87;97603.66;5046110;28;20244;-69
2021/12/18 07:25:44;;;;;;;8.87;6.40;;;;;;;2.36;81.24;97613.84;5046222;28;20481;-65
2021/12/18 07:28:11;;;;;;;11.90;6.67;;;;;;;2.39;81.78;97621.47;5044823;28;20186;-68
2021/12/18 07:30:39;;;;;;;10.10;5.70;;;;;;;2.33;81.64;97616.41;5046031;28;20325;-69
2021/12/18 07:33:10;;;;;;;8.77;4.80;;;;;;;2.42;80.87;97630.84;5045046;28;20680;-67
2021/12/18 07:35:38;;;;;;;10.50;6.03;;;;;;;2.55;81.88;97626.53;5044684;28;20221;-67
2021/12/18 07:38:06;;;;;;;8.50;5.67;;;;;;;2.63;80.30;97630.75;5046112;28;20202;-67
2021/12/18 07:40:35;;;;;;;8.37;5.80;;;;;;;2.76;80.50;97642.59;5045671;28;20184;-69
2021/12/18 07:43:02;;;;;;;10.00;6.27;;;;;;;2.70;79.67;97639.25;5045358;28;20217;-65
2021/12/18 07:45:33;;;;;;;11.60;6.20;;;;;;;2.91;79.96;97644.22;5046185;28;20255;-68
2021/12/18 07:48:02;;;;;;;7.90;4.70;;;;;;;2.86;78.73;97644.28;5044282;28;20221;-71
2021/12/18 07:50:29;;;;;;;6.90;4.87;;;;;;;2.88;77.46;97636.56;5044516;28;20201;-72
2021/12/18 07:52:57;;;;;;;7.17;4.97;;;;;;;3.04;77.37;97648.41;5044633;28;20224;-69
2021/12/18 07:55:28;;;;;;;8.60;5.40;;;;;;;3.17;77.27;97655.16;5046063;28;20201;-66
2021/12/18 07:57:55;;;;;;;6.97;4.40;;;;;;;3.25;75.27;97663.63;5044378;28;20205;-66
2021/12/18 08:00:22;;;;;;;4.63;3.37;;;;;;;3.09;73.55;97667.16;5044358;28;20300;-71
2021/12/18 08:02:49;;;;;;;6.60;4.30;;;;;;;2.92;75.85;97690.25;5045829;28;20197;-69
2021/12/18 08:05:18;;;;;;;7.17;4.17;;;;;;;2.74;78.23;97682.66;5045715;28;20239;-69
2021/12/18 08:07:46;;;;;;;6.30;4.97;;;;;;;2.59;81.04;97675.09;5046002;28;20221;-69
2021/12/18 08:10:13;;;;;;;6.80;4.30;;;;;;;2.60;83.08;97681.88;5045414;28;20771;-71
2021/12/18 08:12:41;;;;;;;11.90;7.53;;;;;;;2.60;83.39;97676.78;5045783;28;20214;-66
2021/12/18 08:15:09;;;;;;;9.80;5.73;;;;;;;2.68;84.83;97681.88;5045966;28;20182;-67
2021/12/18 08:17:36;;;;;;;9.23;5.43;;;;;;;2.75;84.31;97684.38;5044175;28;20206;-72
2021/12/18 08:20:05;;;;;;;11.03;6.03;;;;;;;2.85;85.33;97696.25;5046052;28;20240;-66
2021/12/18 08:22:32;;;;;;;7.73;4.53;;;;;;;2.82;85.37;97703.09;5045933;28;20292;-73
2021/12/18 08:25:00;;;;;;;6.40;4.23;;;;;;;2.83;86.13;97689.44;5065004;28;20201;-70
2021/12/18 08:27:30;;;;;;;9.43;5.43;;;;;;;2.92;86.00;97690.25;5049452;28;20194;-71
2021/12/18 08:29:57;;;;;;;7.17;4.17;;;;;;;2.79;85.52;97693.72;5047754;28;20300;-70
2021/12/18 08:32:24;;;;;;;7.00;4.27;;;;;;;2.76;86.13;97692.91;5049342;28;20243;-67
2021/12/18 08:34:52;;;;;;;7.50;5.30;;;;;;;3.01;85.67;97679.13;5049430;28;20220;-69
2021/12/18 08:37:20;;;;;;;5.23;3.73;;;;;;;3.01;82.66;97681.69;5050091;28;20186;-70
2021/12/18 08:39:48;;;;;;;5.90;4.50;;;;;;;3.27;83.65;97688.34;5049582;28;20657;-69
2021/12/18 08:42:16;;;;;;;7.87;4.93;;;;;;;3.42;83.41;97677.13;5049014;28;20704;-71
2021/12/18 08:44:43;;;;;;;7.97;6.33;;;;;;;3.57;82.65;97681.25;5047760;28;20623;-69
2021/12/18 08:47:10;;;;;;;8.80;5.13;;;;;;;3.55;81.83;97672.75;5048829;28;20193;-68
2021/12/18 08:49:38;;;;;;;8.03;5.50;;;;;;;3.53;82.58;97667.66;5049174;28;20267;-69
2021/12/18 08:52:05;;;;;;;16.40;9.17;;;;;;;3.62;82.38;97680.38;5048701;28;20221;-71
2021/12/18 08:54:33;;;;;;;13.70;7.33;;;;;;;3.79;83.04;97672.56;5049123;28;20677;-70
2021/12/18 08:57:08;;;;;;;10.00;6.90;;;;;;;4.16;81.86;97685.84;5048528;28;20244;-72
2021/12/18 08:59:37;;;;;;;13.10;6.53;;;;;;;4.36;79.74;97665.97;5048478;28;20190;-69
2021/12/18 09:02:08;;;;;;;8.43;6.10;;;;;;;4.61;77.80;97675.94;5048707;28;20236;-67
2021/12/18 09:04:37;;;;;;;6.23;4.67;;;;;;;4.56;75.11;97680.25;5048393;28;20281;-69
2021/12/18 09:07:05;;;;;;;3.80;2.93;;;;;;;4.46;72.19;97670.97;5030985;28;20205;-73
2021/12/18 09:09:38;;;;;;;3.87;2.60;;;;;;;4.40;64.87;97673.63;5048249;28;20272;-72
2021/12/18 09:12:07;;;;;;;2.20;1.97;;;;;;;4.18;66.84;97666.19;5048453;28;20700;-70
2021/12/18 09:14:34;;;;;;;3.57;2.60;;;;;;;4.23;68.44;97666.97;5048280;28;20691;-66
2021/12/18 09:17:02;;;;;;;5.63;3.50;;;;;;;3.98;67.26;97658.69;5047705;28;20201;-67
2021/12/18 09:19:29;;;;;;;3.53;1.97;;;;;;;3.70;65.62;97659.81;5048266;28;20266;-71
2021/12/18 09:21:58;;;;;;;4.07;2.53;;;;;;;3.45;68.19;97668.56;5048052;28;20268;-66
2021/12/18 09:24:25;;;;;;;3.77;2.90;;;;;;;3.63;67.96;97658.16;5047995;28;20210;-68
2021/12/18 09:26:52;;;;;;;3.87;2.40;;;;;;;3.94;67.98;97674.97;5047875;28;20675;-67
2021/12/18 09:29:19;;;;;;;4.83;3.30;;;;;;;3.84;67.23;97670.78;5046529;28;20198;-62
2021/12/18 09:31:47;;;;;;;3.07;2.43;;;;;;;3.71;66.92;97672.59;5047889;28;20244;-64
2021/12/18 09:34:14;;;;;;;3.67;2.83;;;;;;;3.88;67.39;97662.22;5047347;28;20201;-67
2021/12/18 09:36:41;;;;;;;3.33;2.50;;;;;;;4.10;67.90;97656.03;5046131;28;20194;-70
2021/12/18 09:39:09;;;;;;;19.00;9.30;;;;;;;4.28;66.60;97666.06;5029901;28;20193;-68
2021/12/18 09:41:37;;;;;;;4.13;3.43;;;;;;;4.40;67.23;97671.06;5047966;28;20192;-66
2021/12/18 09:44:04;;;;;;;5.00;2.93;;;;;;;4.31;68.23;97683.97;5047590;28;20240;-66
2021/12/18 09:46:32;;;;;;;3.93;2.87;;;;;;;4.12;69.67;97692.75;5047917;28;20697;-67
2021/12/18 09:49:00;;;;;;;3.10;2.57;;;;;;;3.97;69.98;97692.88;5047339;28;20253;-68
2021/12/18 09:51:28;;;;;;;3.47;2.47;;;;;;;4.10;69.06;97684.22;5046919;28;20225;-68
2021/12/18 09:53:57;;;;;;;2.73;1.97;;;;;;;3.91;65.65;97685.25;5046188;28;20189;-68
2021/12/18 09:56:26;;;;;;;3.10;2.30;;;;;;;3.89;65.44;97679.28;5047509;28;20216;-67
2021/12/18 09:58:53;;;;;;;4.60;1.97;;;;;;;3.78;65.71;97681.09;5063060;28;20704;-66
2021/12/18 10:01:21;;;;;;;9.90;5.53;;;;;;;3.88;65.29;97683.56;5047411;28;20190;-66
2021/12/18 10:03:49;;;;;;;3.13;2.70;;;;;;;3.88;65.42;97678.44;5047561;28;20186;-71
2021/12/18 10:06:34;;;;;;;3.87;2.50;;;;;;;3.93;64.68;97679.25;5047515;28;20194;-67
2021/12/18 10:09:09;;;;;;;4.20;3.00;;;;;;;3.75;65.25;97688.81;5046803;28;20201;-66
2021/12/18 10:11:48;;;;;;;3.33;2.57;;;;;;;3.81;65.37;97676.78;5047234;28;20777;-63
2021/12/18 10:14:17;;;;;;;4.10;2.90;;;;;;;3.72;64.99;97683.72;5046897;28;20191;-70
2021/12/18 10:16:47;;;;;;;2.47;2.07;;;;;;;3.52;64.45;97685.59;5047647;28;20191;-68
2021/12/18 10:19:32;;;;;;;5.13;2.47;;;;;;;3.32;65.98;97677.22;5047004;28;20193;-66
2021/12/18 10:22:04;;;;;;;6.10;3.60;;;;;;;3.39;66.21;97682.28;5046972;28;20213;-67
2021/12/18 10:24:32;;;;;;;4.23;2.40;;;;;;;3.56;65.84;97664.22;5047132;28;20284;-68
2021/12/18 10:27:01;;;;;;;5.67;3.43;;;;;;;3.78;66.02;97665.72;5046992;28;20271;-68
2021/12/18 10:29:36;;;;;;;3.93;2.50;;;;;;;3.44;64.87;97659.22;5047291;28;20591;-69
2021/12/18 10:32:12;;;;;;;3.20;2.40;;;;;;;3.46;64.13;97670.28;5046963;28;20229;-67
2021/12/18 10:34:42;;;;;;;5.23;3.20;;;;;;;3.54;65.19;97666.81;5046824;28;20324;-67
2021/12/18 10:37:18;;;;;;;6.47;3.23;;;;;;;3.46;65.94;97680.53;5046469;28;20194;-69
2021/12/18 10:39:53;;;;;;;6.27;3.30;;;;;;;3.46;65.64;97681.38;5046414;28;20547;-69
2021/12/18 10:42:43;;;;;;;2.67;2.03;;;;;;;3.28;65.15;97674.66;5045365;28;20267;-66
2021/12/18 10:45:12;;;;;;;6.40;3.20;;;;;;;3.26;65.75;97670.41;5046222;28;20296;-67
2021/12/18 10:47:48;;;;;;;3.73;2.30;;;;;;;3.16;65.63;97669.63;5046528;28;20240;-67
2021/12/18 10:50:29;;;;;;;4.97;3.53;;;;;;;3.29;66.46;97668.72;5046769;28;20687;-66
2021/12/18 10:53:01;;;;;;;3.97;2.60;;;;;;;3.24;65.45;97631.19;5046231;28;20260;-69
2021/12/18 10:55:33;;;;;;;3.80;2.93;;;;;;;3.21;66.70;97672.19;5045077;28;20331;-66
2021/12/18 10:58:02;;;;;;;3.27;2.10;;;;;;;3.24;66.46;97662.75;5046226;28;20284;-67
2021/12/18 11:00:49;;;;;;;4.13;2.33;;;;;;;3.40;66.50;97670.34;5044903;28;20181;-67
2021/12/18 11:03:27;;;;;;;4.93;2.73;;;;;;;3.25;65.07;97673.84;5046455;28;20280;-68
2021/12/18 11:06:13;;;;;;;4.50;2.93;;;;;;;3.04;64.52;97674.84;5046147;28;20712;-69
2021/12/18 11:09:04;;;;;;;3.13;2.00;;;;;;;2.44;65.73;97558.44;5046243;28;20254;-67
2021/12/18 11:14:14;;;;;;;3.87;2.37;;;;;;;3.22;63.02;97649.13;5045929;28;20201;-66
2021/12/18 11:16:44;;;;;;;3.10;2.17;;;;;;;3.22;62.58;97648.28;5046533;28;20684;-65
2021/12/18 11:19:13;;;;;;;6.20;3.10;;;;;;;3.32;63.00;97660.13;5045886;28;20281;-65
2021/12/18 11:21:46;;;;;;;2.67;2.10;;;;;;;3.21;61.27;97660.22;5044511;28;20796;-64
2021/12/18 11:24:14;;;;;;;3.17;2.03;;;;;;;3.21;61.73;97652.53;5045949;28;20263;-70
2021/12/18 11:26:46;;;;;;;4.87;3.40;;;;;;;3.13;62.85;97646.63;5046079;28;20213;-68
2021/12/18 11:29:19;;;;;;;7.13;4.77;;;;;;;3.15;64.13;97637.22;5046256;28;20702;-68
2021/12/18 11:31:47;;;;;;;2.23;1.70;;;;;;;3.11;62.41;97639.84;5044695;28;20252;-70
2021/12/18 11:34:15;;;;;;;2.50;2.27;;;;;;;3.14;62.25;97640.66;5046240;28;20685;-67
2021/12/18 11:36:44;;;;;;;3.10;2.30;;;;;;;3.18;62.98;97651.72;5045613;28;20292;-61
2021/12/18 11:39:12;;;;;;;5.07;3.30;;;;;;;3.19;62.75;97644.00;5045586;28;20293;-65
2021/12/18 11:41:40;;;;;;;3.90;2.07;;;;;;;3.18;60.64;97662.81;5046056;28;20209;-66
2021/12/18 11:44:29;;;;;;;4.17;2.30;;;;;;;3.22;60.18;97656.81;5045171;28;20383;-67
2021/12/18 11:46:59;;;;;;;3.27;2.00;;;;;;;3.28;60.95;97649.06;5061114;28;20193;-66
2021/12/18 11:49:42;;;;;;;2.53;1.30;;;;;;;3.21;60.39;97661.94;5045764;28;20193;-69
2021/12/18 11:52:09;;;;;;;2.77;2.43;;;;;;;3.17;59.79;97647.47;5044454;28;20221;-67
2021/12/18 11:55:08;;;;;;;4.50;3.13;;;;;;;3.33;61.56;97666.97;5044305;28;20751;-69
2021/12/18 11:57:49;;;;;;;4.87;2.93;;;;;;;3.45;62.28;97656.63;5043350;28;20205;-69
2021/12/18 12:00:22;;;;;;;6.53;3.40;;;;;;;3.42;61.07;97648.13;5048763;28;20231;-63
2021/12/18 12:02:55;;;;;;;4.30;3.13;;;;;;;3.53;61.45;97642.03;5049836;28;20300;-69
2021/12/18 12:05:48;;;;;;;13.27;6.57;;;;;;;3.62;61.13;97639.41;5048786;28;20611;-64
2021/12/18 12:08:23;;;;;;;20.70;7.23;;;;;;;3.73;61.41;97652.13;5048721;28;20276;-67
2021/12/18 12:11:18;;;;;;;12.87;5.63;;;;;;;3.53;61.29;97659.13;5049579;28;20247;-65
2021/12/18 12:13:58;;;;;;;9.53;5.70;;;;;;;3.38;62.81;97651.56;5046759;28;20256;-67
2021/12/18 12:16:44;;;;;;;36.07;14.57;;;;;;;3.39;62.91;97658.38;5049771;28;20208;-64
2021/12/18 12:19:39;;;;;;;3.47;2.37;;;;;;;3.41;63.97;97651.53;5049102;28;20206;-66
2021/12/18 12:22:27;;;;;;;4.37;2.60;;;;;;;3.18;62.75;97615.88;5049051;28;20760;-66
2021/12/18 12:24:57;;;;;;;4.10;3.03;;;;;;;3.48;62.70;97660.88;5049224;28;20233;-68
2021/12/18 12:27:24;;;;;;;8.27;4.20;;;;;;;3.50;63.23;97648.91;5049008;28;20275;-69
2021/12/18 12:29:52;;;;;;;7.00;4.60;;;;;;;3.53;63.47;97646.31;5065019;28;20202;-67
2021/12/18 12:32:20;;;;;;;7.77;4.30;;;;;;;3.70;62.90;97647.03;5049135;28;20231;-68